createdAt,value
2016-02-17T00:00:03.089Z,958.45
2016-02-17T00:01:03.014Z,958.43
2016-02-17T00:02:02.954Z,958.47
2016-02-17T00:03:02.925Z,958.42
2016-02-17T00:04:02.849Z,958.36
2016-02-17T00:05:02.775Z,958.28
2016-02-17T00:06:02.731Z,958.27
2016-02-17T00:07:02.655Z,958.28
2016-02-17T00:08:02.611Z,958.28
2016-02-17T00:09:02.551Z,958.25
2016-02-17T00:10:02.523Z,958.23
2016-02-17T00:11:02.431Z,958.21
2016-02-17T00:12:02.372Z,958.21
2016-02-17T00:13:02.343Z,958.24
2016-02-17T00:14:02.237Z,958.23
2016-02-17T00:15:02.177Z,958.15
2016-02-17T00:16:02.132Z,958.15
2016-02-17T00:17:02.073Z,958.1
2016-02-17T00:18:02.012Z,958.1
2016-02-17T00:19:02.000Z,958.07
2016-02-17T00:20:01.878Z,958.06
2016-02-17T00:21:01.833Z,958.04
2016-02-17T00:22:01.773Z,958.05
2016-02-17T00:23:01.714Z,958.07
2016-02-17T00:24:01.685Z,958.11
2016-02-17T00:25:01.656Z,958.03
2016-02-17T00:26:01.612Z,958.08
2016-02-17T00:27:01.522Z,958.07
2016-02-17T00:28:01.415Z,958.02
2016-02-17T00:29:01.355Z,958.08
2016-02-17T00:30:01.456Z,958.04
2016-02-17T00:31:01.255Z,958.08
2016-02-17T00:32:01.165Z,958.07
2016-02-17T00:33:01.152Z,958.02
2016-02-17T00:34:01.061Z,958.01
2016-02-17T00:35:01.016Z,958
2016-02-17T00:36:00.941Z,958.03
2016-02-17T00:37:00.866Z,957.95
2016-02-17T00:38:00.837Z,957.95
2016-02-17T00:39:00.746Z,957.94
2016-02-17T00:40:00.701Z,957.9
2016-02-17T00:41:00.643Z,957.89
2016-02-17T00:42:00.567Z,957.85
2016-02-17T00:43:00.538Z,957.87
2016-02-17T00:44:00.493Z,957.84
2016-02-17T00:45:00.403Z,957.77
2016-02-17T00:46:00.328Z,957.75
2016-02-17T00:47:00.284Z,957.8
2016-02-17T00:48:00.223Z,957.78
2016-02-17T00:49:00.148Z,957.78
2016-02-17T00:50:00.104Z,957.7
2016-02-17T00:51:00.012Z,957.7
2016-02-17T00:51:59.969Z,957.68
2016-02-17T00:52:59.908Z,957.69
2016-02-17T00:53:59.865Z,957.68
2016-02-17T00:54:59.789Z,957.64
2016-02-17T00:55:59.761Z,957.64
2016-02-17T00:56:59.685Z,957.58
2016-02-17T00:57:59.625Z,957.57
2016-02-17T00:58:59.566Z,957.59
2016-02-17T00:59:59.490Z,957.51
2016-02-17T01:00:59.414Z,957.58
2016-02-17T01:01:59.371Z,957.59
2016-02-17T01:02:59.342Z,957.55
2016-02-17T01:03:59.235Z,957.52
2016-02-17T01:04:59.207Z,957.48
2016-02-17T01:05:59.131Z,957.51
2016-02-17T01:06:59.119Z,957.45
2016-02-17T01:07:59.027Z,957.44
2016-02-17T01:08:58.936Z,957.32
2016-02-17T01:09:58.892Z,957.41
2016-02-17T01:10:58.848Z,957.35
2016-02-17T01:11:58.788Z,957.39
2016-02-17T01:12:58.728Z,957.29
2016-02-17T01:13:58.653Z,957.27
2016-02-17T01:14:58.593Z,957.31
2016-02-17T01:15:58.533Z,957.3
2016-02-17T01:16:58.504Z,957.29
2016-02-17T01:17:58.429Z,957.27
2016-02-17T01:18:58.370Z,957.27
2016-02-17T01:19:58.294Z,957.28
2016-02-17T01:20:58.250Z,957.22
2016-02-17T01:21:58.174Z,957.24
2016-02-17T01:22:58.115Z,957.2
2016-02-17T01:23:58.070Z,957.16
2016-02-17T01:24:58.026Z,957.1
2016-02-17T01:25:57.951Z,957.11
2016-02-17T01:26:57.875Z,957.05
2016-02-17T01:27:57.816Z,957.06
2016-02-17T01:28:57.756Z,956.97
2016-02-17T01:29:57.742Z,957.06
2016-02-17T01:30:57.667Z,957.02
2016-02-17T01:31:57.623Z,956.95
2016-02-17T01:32:57.516Z,956.9
2016-02-17T01:33:57.472Z,956.93
2016-02-17T01:34:57.427Z,956.89
2016-02-17T01:35:57.338Z,956.85
2016-02-17T01:36:57.293Z,956.86
2016-02-17T01:37:57.218Z,956.8
2016-02-17T01:38:57.173Z,956.77
2016-02-17T01:39:57.082Z,956.72
2016-02-17T01:40:57.038Z,956.67
2016-02-17T01:41:56.978Z,956.68
2016-02-17T01:42:56.918Z,956.73
2016-02-17T01:43:56.843Z,956.63
2016-02-17T01:44:56.815Z,956.68
2016-02-17T01:45:56.754Z,956.63
2016-02-17T01:46:56.679Z,956.66
2016-02-17T01:47:56.620Z,956.63
2016-02-17T01:48:56.575Z,956.61
2016-02-17T01:49:56.546Z,956.61
2016-02-17T01:50:56.455Z,956.55
2016-02-17T01:51:56.380Z,956.56
2016-02-17T01:52:56.320Z,956.49
2016-02-17T01:53:56.261Z,956.45
2016-02-17T01:54:56.200Z,956.46
2016-02-17T01:55:56.156Z,956.45
2016-02-17T01:56:56.097Z,956.36
2016-02-17T01:57:56.037Z,956.38
2016-02-17T01:58:55.945Z,956.35
2016-02-17T01:59:55.917Z,956.34
2016-02-17T02:00:55.842Z,956.31
2016-02-17T02:01:55.782Z,956.28
2016-02-17T02:02:55.738Z,956.27
2016-02-17T02:03:55.662Z,956.31
2016-02-17T02:04:55.602Z,956.23
2016-02-17T02:05:55.605Z,956.2
2016-02-17T02:06:55.529Z,956.12
2016-02-17T02:07:55.470Z,956.12
2016-02-17T02:08:55.363Z,956.12
2016-02-17T02:09:55.304Z,956.1
2016-02-17T02:10:55.244Z,956.09
2016-02-17T02:11:55.168Z,956.07
2016-02-17T02:12:55.124Z,956
2016-02-17T02:13:55.065Z,955.97
2016-02-17T02:14:55.020Z,955.93
2016-02-17T02:15:54.945Z,955.96
2016-02-17T02:16:54.885Z,955.94
2016-02-17T02:17:54.826Z,955.86
2016-02-17T02:18:54.812Z,955.87
2016-02-17T02:19:54.720Z,955.83
2016-02-17T02:20:54.676Z,955.84
2016-02-17T02:21:54.664Z,955.82
2016-02-17T02:22:54.526Z,955.74
2016-02-17T02:23:54.466Z,955.72
2016-02-17T02:24:54.406Z,955.73
2016-02-17T02:25:54.332Z,955.67
2016-02-17T02:26:54.288Z,955.72
2016-02-17T02:27:54.290Z,955.68
2016-02-17T02:28:54.199Z,955.64
2016-02-17T02:29:54.124Z,955.64
2016-02-17T02:30:54.048Z,955.66
2016-02-17T02:31:54.004Z,955.63
2016-02-17T02:32:53.912Z,955.67
2016-02-17T02:33:53.854Z,955.61
2016-02-17T02:34:53.840Z,955.69
2016-02-17T02:35:53.750Z,955.63
2016-02-17T02:36:53.673Z,955.61
2016-02-17T02:37:53.614Z,955.66
2016-02-17T02:38:53.586Z,955.61
2016-02-17T02:39:53.494Z,955.62
2016-02-17T02:40:53.434Z,955.59
2016-02-17T02:41:53.391Z,955.53
2016-02-17T02:42:53.347Z,955.51
2016-02-17T02:43:53.271Z,955.48
2016-02-17T02:44:53.195Z,955.45
2016-02-17T02:45:53.152Z,955.46
2016-02-17T02:46:53.108Z,955.39
2016-02-17T02:47:53.078Z,955.4
2016-02-17T02:48:52.988Z,955.38
2016-02-17T02:49:52.943Z,955.33
2016-02-17T02:50:52.836Z,955.36
2016-02-17T02:51:52.777Z,955.35
2016-02-17T02:52:52.748Z,955.37
2016-02-17T02:53:52.719Z,955.35
2016-02-17T02:54:52.597Z,955.25
2016-02-17T02:55:52.554Z,955.25
2016-02-17T02:56:52.494Z,955.24
2016-02-17T02:57:52.434Z,955.23
2016-02-17T02:58:52.374Z,955.17
2016-02-17T02:59:52.298Z,955.16
2016-02-17T03:00:52.254Z,955.14
2016-02-17T03:01:52.194Z,955.07
2016-02-17T03:02:52.151Z,955.03
2016-02-17T03:03:52.075Z,955.06
2016-02-17T03:04:52.015Z,955.07
2016-02-17T03:05:51.955Z,955.09
2016-02-17T03:06:51.895Z,955.11
2016-02-17T03:07:51.836Z,955.08
2016-02-17T03:08:51.806Z,955.11
2016-02-17T03:09:51.716Z,954.99
2016-02-17T03:10:51.640Z,955.02
2016-02-17T03:11:51.597Z,955.04
2016-02-17T03:12:51.520Z,955.07
2016-02-17T03:13:51.477Z,955.05
2016-02-17T03:14:51.400Z,954.93
2016-02-17T03:15:51.342Z,954.98
2016-02-17T03:16:51.297Z,954.84
2016-02-17T03:17:51.222Z,954.86
2016-02-17T03:18:51.177Z,954.83
2016-02-17T03:19:51.102Z,954.83
2016-02-17T03:20:51.089Z,954.79
2016-02-17T03:21:50.982Z,954.82
2016-02-17T03:22:50.922Z,954.8
2016-02-17T03:23:50.847Z,954.81
2016-02-17T03:24:50.803Z,954.81
2016-02-17T03:25:50.743Z,954.8
2016-02-17T03:26:50.668Z,954.74
2016-02-17T03:27:50.671Z,954.79
2016-02-17T03:28:50.595Z,954.86
2016-02-17T03:29:50.504Z,954.84
2016-02-17T03:30:50.443Z,954.88
2016-02-17T03:31:50.385Z,954.81
2016-02-17T03:32:50.324Z,954.82
2016-02-17T03:33:50.281Z,954.85
2016-02-17T03:34:50.190Z,954.78
2016-02-17T03:35:50.161Z,954.74
2016-02-17T03:36:50.085Z,954.77
2016-02-17T03:37:50.009Z,954.75
2016-02-17T03:38:50.012Z,954.72
2016-02-17T03:39:49.906Z,954.72
2016-02-17T03:40:49.831Z,954.64
2016-02-17T03:41:49.770Z,954.72
2016-02-17T03:42:49.711Z,954.73
2016-02-17T03:43:49.666Z,954.74
2016-02-17T03:44:49.606Z,954.74
2016-02-17T03:45:49.531Z,954.72
2016-02-17T03:46:49.472Z,954.72
2016-02-17T03:47:49.411Z,954.73
2016-02-17T03:48:49.352Z,954.75
2016-02-17T03:49:49.277Z,954.73
2016-02-17T03:50:49.232Z,954.71
2016-02-17T03:51:49.235Z,954.69
2016-02-17T03:52:49.191Z,954.71
2016-02-17T03:53:49.053Z,954.71
2016-02-17T03:54:48.993Z,954.65
2016-02-17T03:55:48.933Z,954.71
2016-02-17T03:56:48.874Z,954.68
2016-02-17T03:57:48.798Z,954.74
2016-02-17T03:58:48.738Z,954.74
2016-02-17T03:59:48.678Z,954.74
2016-02-17T04:00:48.650Z,954.75
2016-02-17T04:01:48.559Z,954.78
2016-02-17T04:02:48.530Z,954.75
2016-02-17T04:03:48.455Z,954.72
2016-02-17T04:04:48.395Z,954.78
2016-02-17T04:05:48.320Z,954.69
2016-02-17T04:06:48.259Z,954.74
2016-02-17T04:07:48.247Z,954.74
2016-02-17T04:08:48.203Z,954.76
2016-02-17T04:09:48.096Z,954.76
2016-02-17T04:10:48.051Z,954.75
2016-02-17T04:11:47.976Z,954.75
2016-02-17T04:12:47.931Z,954.78
2016-02-17T04:13:47.872Z,954.81
2016-02-17T04:14:47.797Z,954.76
2016-02-17T04:15:47.737Z,954.76
2016-02-17T04:16:47.677Z,954.8
2016-02-17T04:17:47.617Z,954.78
2016-02-17T04:18:47.558Z,954.75
2016-02-17T04:19:47.497Z,954.73
2016-02-17T04:20:47.438Z,954.77
2016-02-17T04:21:47.394Z,954.76
2016-02-17T04:22:47.366Z,954.71
2016-02-17T04:23:47.258Z,954.72
2016-02-17T04:24:47.199Z,954.73
2016-02-17T04:25:47.171Z,954.71
2016-02-17T04:26:47.094Z,954.71
2016-02-17T04:27:47.035Z,954.69
2016-02-17T04:28:46.974Z,954.62
2016-02-17T04:29:46.899Z,954.66
2016-02-17T04:30:46.855Z,954.61
2016-02-17T04:31:46.796Z,954.53
2016-02-17T04:32:46.733Z,954.6
2016-02-17T04:33:46.690Z,954.54
2016-02-17T04:34:46.613Z,954.56
2016-02-17T04:35:46.570Z,954.49
2016-02-17T04:36:46.525Z,954.48
2016-02-17T04:37:46.496Z,954.44
2016-02-17T04:38:46.390Z,954.4
2016-02-17T04:39:46.315Z,954.38
2016-02-17T04:40:46.348Z,954.38
2016-02-17T04:41:46.242Z,954.33
2016-02-17T04:42:46.181Z,954.29
2016-02-17T04:43:46.091Z,954.24
2016-02-17T04:44:46.031Z,954.23
2016-02-17T04:45:45.955Z,954.17
2016-02-17T04:46:45.928Z,954.14
2016-02-17T04:47:45.852Z,954.17
2016-02-17T04:48:45.808Z,954.1
2016-02-17T04:49:45.733Z,954.02
2016-02-17T04:50:45.672Z,954.03
2016-02-17T04:51:45.613Z,954.03
2016-02-17T04:52:45.569Z,953.99
2016-02-17T04:53:45.493Z,954
2016-02-17T04:54:45.449Z,953.96
2016-02-17T04:55:45.374Z,953.94
2016-02-17T04:56:45.313Z,953.94
2016-02-17T04:57:45.269Z,953.93
2016-02-17T04:58:45.193Z,953.93
2016-02-17T04:59:45.149Z,953.89
2016-02-17T05:00:45.074Z,953.85
2016-02-17T05:01:45.061Z,953.86
2016-02-17T05:02:44.955Z,953.86
2016-02-17T05:03:44.973Z,953.85
2016-02-17T05:04:44.851Z,953.85
2016-02-17T05:05:44.837Z,953.83
2016-02-17T05:06:44.746Z,953.81
2016-02-17T05:07:44.671Z,953.81
2016-02-17T05:08:44.627Z,953.74
2016-02-17T05:09:44.583Z,953.73
2016-02-17T05:10:44.492Z,953.71
2016-02-17T05:11:44.432Z,953.7
2016-02-17T05:12:44.387Z,953.69
2016-02-17T05:13:44.328Z,953.65
2016-02-17T05:14:44.267Z,953.67
2016-02-17T05:15:44.209Z,953.61
2016-02-17T05:16:44.148Z,953.63
2016-02-17T05:17:44.089Z,953.61
2016-02-17T05:18:44.045Z,953.62
2016-02-17T05:19:44.000Z,953.6
2016-02-17T05:20:43.909Z,953.58
2016-02-17T05:21:43.849Z,953.57
2016-02-17T05:22:43.805Z,953.55
2016-02-17T05:23:43.730Z,953.55
2016-02-17T05:24:43.670Z,953.51
2016-02-17T05:25:43.611Z,953.48
2016-02-17T05:26:43.566Z,953.53
2016-02-17T05:27:43.506Z,953.46
2016-02-17T05:28:43.493Z,953.44
2016-02-17T05:29:43.371Z,953.42
2016-02-17T05:30:43.327Z,953.44
2016-02-17T05:31:43.267Z,953.44
2016-02-17T05:32:43.191Z,953.42
2016-02-17T05:33:43.132Z,953.42
2016-02-17T05:34:43.118Z,953.41
2016-02-17T05:35:43.012Z,953.38
2016-02-17T05:36:42.968Z,953.39
2016-02-17T05:37:42.940Z,953.33
2016-02-17T05:38:42.833Z,953.34
2016-02-17T05:39:42.788Z,953.35
2016-02-17T05:40:42.729Z,953.34
2016-02-17T05:41:42.668Z,953.34
2016-02-17T05:42:42.609Z,953.32
2016-02-17T05:43:42.564Z,953.27
2016-02-17T05:44:42.506Z,953.27
2016-02-17T05:45:42.476Z,953.28
2016-02-17T05:46:42.370Z,953.26
2016-02-17T05:47:42.357Z,953.25
2016-02-17T05:48:42.250Z,953.21
2016-02-17T05:49:42.206Z,953.23
2016-02-17T05:50:42.114Z,953.23
2016-02-17T05:51:42.086Z,953.24
2016-02-17T05:52:42.011Z,953.22
2016-02-17T05:53:41.967Z,953.21
2016-02-17T05:54:41.954Z,953.19
2016-02-17T05:55:41.847Z,953.24
2016-02-17T05:56:41.788Z,953.21
2016-02-17T05:57:41.711Z,953.18
2016-02-17T05:58:41.652Z,953.16
2016-02-17T05:59:41.607Z,953.16
2016-02-17T06:00:41.549Z,953.17
2016-02-17T06:01:41.489Z,953.17
2016-02-17T06:02:41.444Z,953.14
2016-02-17T06:03:41.384Z,953.17
2016-02-17T06:04:41.309Z,953.16
2016-02-17T06:05:41.249Z,953.15
2016-02-17T06:06:41.204Z,953.13
2016-02-17T06:07:41.130Z,953.11
2016-02-17T06:08:41.085Z,953.07
2016-02-17T06:09:41.057Z,953.11
2016-02-17T06:10:40.981Z,953.08
2016-02-17T06:11:40.937Z,953.1
2016-02-17T06:12:40.846Z,953.12
2016-02-17T06:13:40.770Z,953.06
2016-02-17T06:14:40.727Z,953.07
2016-02-17T06:15:40.682Z,953.1
2016-02-17T06:16:40.591Z,953.14
2016-02-17T06:17:40.578Z,953.17
2016-02-17T06:18:40.534Z,953.19
2016-02-17T06:19:40.412Z,953.19
2016-02-17T06:20:40.353Z,953.2
2016-02-17T06:21:40.323Z,953.21
2016-02-17T06:22:40.247Z,953.22
2016-02-17T06:23:40.204Z,953.22
2016-02-17T06:24:40.192Z,953.2
2016-02-17T06:25:40.084Z,953.24
2016-02-17T06:26:40.009Z,953.22
2016-02-17T06:27:39.933Z,953.22
2016-02-17T06:28:39.905Z,953.2
2016-02-17T06:29:39.844Z,953.2
2016-02-17T06:30:39.769Z,953.21
2016-02-17T06:31:39.741Z,953.19
2016-02-17T06:32:39.728Z,953.17
2016-02-17T06:33:39.653Z,953.17
2016-02-17T06:34:39.593Z,953.21
2016-02-17T06:35:39.502Z,953.17
2016-02-17T06:36:39.441Z,953.15
2016-02-17T06:37:39.398Z,953.17
2016-02-17T06:38:39.400Z,953.15
2016-02-17T06:39:39.247Z,953.08
2016-02-17T06:40:39.188Z,953.05
2016-02-17T06:41:39.127Z,953.05
2016-02-17T06:42:39.365Z,952.99
2016-02-17T06:43:39.023Z,953.03
2016-02-17T06:44:38.948Z,953
2016-02-17T06:45:38.965Z,952.96
2016-02-17T06:46:38.859Z,952.97
2016-02-17T06:47:38.769Z,953.01
2016-02-17T06:48:38.771Z,952.99
2016-02-17T06:49:38.665Z,953
2016-02-17T06:50:38.604Z,952.99
2016-02-17T06:51:38.545Z,953.01
2016-02-17T06:52:38.470Z,952.98
2016-02-17T06:53:38.409Z,952.99
2016-02-17T06:54:38.380Z,952.98
2016-02-17T06:55:38.322Z,952.97
2016-02-17T06:56:38.325Z,952.91
2016-02-17T06:57:38.186Z,952.9
2016-02-17T06:58:38.125Z,952.84
2016-02-17T06:59:38.066Z,952.86
2016-02-17T07:00:38.006Z,952.81
2016-02-17T07:01:37.993Z,952.81
2016-02-17T07:02:37.887Z,952.78
2016-02-17T07:03:37.890Z,952.76
2016-02-17T07:04:37.860Z,952.84
2016-02-17T07:05:37.707Z,952.79
2016-02-17T07:06:37.663Z,952.73
2016-02-17T07:07:37.604Z,952.77
2016-02-17T07:08:37.528Z,952.75
2016-02-17T07:09:37.500Z,952.75
2016-02-17T07:10:37.440Z,952.7
2016-02-17T07:11:37.365Z,952.73
2016-02-17T07:12:37.305Z,952.73
2016-02-17T07:13:37.245Z,952.73
2016-02-17T07:14:37.201Z,952.77
2016-02-17T07:15:37.140Z,952.77
2016-02-17T07:16:37.082Z,952.75
2016-02-17T07:17:37.037Z,952.77
2016-02-17T07:18:36.961Z,952.7
2016-02-17T07:19:36.901Z,952.72
2016-02-17T07:20:36.842Z,952.72
2016-02-17T07:21:36.797Z,952.7
2016-02-17T07:22:36.723Z,952.7
2016-02-17T07:23:36.646Z,952.67
2016-02-17T07:24:36.634Z,952.65
2016-02-17T07:25:36.589Z,952.67
2016-02-17T07:26:36.498Z,952.59
2016-02-17T07:27:36.439Z,952.69
2016-02-17T07:28:36.363Z,952.63
2016-02-17T07:29:36.319Z,952.63
2016-02-17T07:30:36.259Z,952.61
2016-02-17T07:31:36.214Z,952.58
2016-02-17T07:32:36.218Z,952.59
2016-02-17T07:33:36.345Z,952.61
2016-02-17T07:34:36.052Z,952.58
2016-02-17T07:35:35.975Z,952.59
2016-02-17T07:36:35.916Z,952.61
2016-02-17T07:37:35.872Z,952.53
2016-02-17T07:38:35.780Z,952.51
2016-02-17T07:39:35.721Z,952.47
2016-02-17T07:40:35.677Z,952.47
2016-02-17T07:41:35.727Z,952.41
2016-02-17T07:42:35.541Z,952.42
2016-02-17T07:43:35.513Z,952.42
2016-02-17T07:44:35.750Z,952.42
2016-02-17T07:45:35.440Z,952.4
2016-02-17T07:46:35.317Z,952.44
2016-02-17T07:47:35.680Z,952.44
2016-02-17T07:48:35.198Z,952.43
2016-02-17T07:49:35.135Z,952.41
2016-02-17T07:50:35.058Z,952.4
2016-02-17T07:51:34.998Z,952.4
2016-02-17T07:52:34.922Z,952.38
2016-02-17T07:53:35.002Z,952.38
2016-02-17T07:54:35.068Z,952.32
2016-02-17T07:55:35.346Z,952.29
2016-02-17T07:56:34.672Z,952.33
2016-02-17T07:57:34.731Z,952.25
2016-02-17T07:58:34.555Z,952.23
2016-02-17T07:59:34.600Z,952.27
2016-02-17T08:00:34.413Z,952.27
2016-02-17T08:01:34.336Z,952.26
2016-02-17T08:02:34.275Z,952.26
2016-02-17T08:03:34.213Z,952.24
2016-02-17T08:04:34.152Z,952.22
2016-02-17T08:05:34.091Z,952.22
2016-02-17T08:06:34.030Z,952.18
2016-02-17T08:07:33.970Z,952.22
2016-02-17T08:08:33.909Z,952.2
2016-02-17T08:09:33.864Z,952.18
2016-02-17T08:10:33.804Z,952.17
2016-02-17T08:11:33.712Z,952.1
2016-02-17T08:12:33.684Z,952.06
2016-02-17T08:13:33.623Z,952.05
2016-02-17T08:14:33.547Z,951.99
2016-02-17T08:15:33.519Z,951.99
2016-02-17T08:16:33.443Z,951.99
2016-02-17T08:17:33.384Z,951.97
2016-02-17T08:18:33.308Z,951.93
2016-02-17T08:19:33.249Z,951.95
2016-02-17T08:20:33.219Z,951.97
2016-02-17T08:21:33.129Z,951.91
2016-02-17T08:22:33.100Z,951.94
2016-02-17T08:23:33.040Z,951.9
2016-02-17T08:24:32.981Z,951.89
2016-02-17T08:25:32.937Z,951.91
2016-02-17T08:26:32.908Z,951.87
2016-02-17T08:27:32.802Z,951.88
2016-02-17T08:28:32.758Z,951.84
2016-02-17T08:29:32.682Z,951.86
2016-02-17T08:30:32.622Z,951.81
2016-02-17T08:31:32.813Z,951.78
2016-02-17T08:32:32.502Z,951.81
2016-02-17T08:33:32.442Z,951.77
2016-02-17T08:34:32.368Z,951.79
2016-02-17T08:35:32.339Z,951.81
2016-02-17T08:36:32.248Z,951.82
2016-02-17T08:37:32.219Z,951.81
2016-02-17T08:38:32.159Z,951.82
2016-02-17T08:39:32.068Z,951.81
2016-02-17T08:40:32.024Z,951.85
2016-02-17T08:41:31.980Z,951.86
2016-02-17T08:42:31.920Z,951.84
2016-02-17T08:43:31.861Z,951.85
2016-02-17T08:44:31.801Z,951.85
2016-02-17T08:45:31.742Z,951.86
2016-02-17T08:46:31.681Z,951.84
2016-02-17T08:47:31.606Z,951.86
2016-02-17T08:48:31.625Z,951.84
2016-02-17T08:49:31.502Z,951.85
2016-02-17T08:50:31.442Z,951.81
2016-02-17T08:51:31.382Z,951.82
2016-02-17T08:52:31.338Z,951.82
2016-02-17T08:53:31.277Z,951.79
2016-02-17T08:54:31.218Z,951.78
2016-02-17T08:55:31.158Z,951.79
2016-02-17T08:56:31.099Z,951.79
2016-02-17T08:57:31.039Z,951.76
2016-02-17T08:58:30.979Z,951.69
2016-02-17T08:59:30.935Z,951.68
2016-02-17T09:00:30.906Z,951.67
2016-02-17T09:01:30.799Z,951.64
2016-02-17T09:02:30.740Z,951.66
2016-02-17T09:03:30.680Z,951.63
2016-02-17T09:04:30.636Z,951.58
2016-02-17T09:05:30.560Z,951.65
2016-02-17T09:06:30.516Z,951.61
2016-02-17T09:07:30.456Z,951.55
2016-02-17T09:08:30.396Z,951.5
2016-02-17T09:09:30.321Z,951.53
2016-02-17T09:10:30.276Z,951.49
2016-02-17T09:11:30.217Z,951.53
2016-02-17T09:12:30.172Z,951.54
2016-02-17T09:13:30.113Z,951.54
2016-02-17T09:14:30.054Z,951.54
2016-02-17T09:15:29.993Z,951.48
2016-02-17T09:16:29.934Z,951.5
2016-02-17T09:17:29.858Z,951.49
2016-02-17T09:18:29.814Z,951.45
2016-02-17T09:19:29.769Z,951.51
2016-02-17T09:20:29.694Z,951.47
2016-02-17T09:21:29.744Z,951.43
2016-02-17T09:22:29.590Z,951.44
2016-02-17T09:23:29.531Z,951.42
2016-02-17T09:24:29.611Z,951.45
2016-02-17T09:25:29.395Z,951.43
2016-02-17T09:26:29.366Z,951.45
2016-02-17T09:27:29.307Z,951.45
2016-02-17T09:28:29.246Z,951.45
2016-02-17T09:29:29.281Z,951.44
2016-02-17T09:30:29.112Z,951.42
2016-02-17T09:31:29.068Z,951.4
2016-02-17T09:32:29.007Z,951.37
2016-02-17T09:33:28.948Z,951.37
2016-02-17T09:34:28.935Z,951.36
2016-02-17T09:35:28.828Z,951.35
2016-02-17T09:36:28.769Z,951.34
2016-02-17T09:37:28.741Z,951.34
2016-02-17T09:38:28.649Z,951.33
2016-02-17T09:39:28.590Z,951.31
2016-02-17T09:40:28.576Z,951.3
2016-02-17T09:41:28.517Z,951.28
2016-02-17T09:42:28.426Z,951.29
2016-02-17T09:43:28.381Z,951.28
2016-02-17T09:44:28.321Z,951.26
2016-02-17T09:45:28.245Z,951.21
2016-02-17T09:46:28.186Z,951.25
2016-02-17T09:47:28.158Z,951.21
2016-02-17T09:48:28.082Z,951.23
2016-02-17T09:49:28.069Z,951.21
2016-02-17T09:50:28.009Z,951.2
2016-02-17T09:51:27.919Z,951.18
2016-02-17T09:52:27.859Z,951.2
2016-02-17T09:53:27.799Z,951.22
2016-02-17T09:54:27.755Z,951.2
2016-02-17T09:55:27.710Z,951.21
2016-02-17T09:56:27.650Z,951.21
2016-02-17T09:57:27.575Z,951.17
2016-02-17T09:58:27.516Z,951.15
2016-02-17T09:59:27.472Z,951.1
2016-02-17T10:00:27.396Z,951.11
2016-02-17T10:01:27.336Z,951.11
2016-02-17T10:02:27.308Z,951.09
2016-02-17T10:03:27.232Z,951.11
2016-02-17T10:04:27.156Z,951.07
2016-02-17T10:05:27.112Z,951.05
2016-02-17T10:06:27.052Z,951.06
2016-02-17T10:07:26.993Z,951.05
2016-02-17T10:08:26.964Z,951.03
2016-02-17T10:09:26.888Z,950.98
2016-02-17T10:10:26.829Z,950.99
2016-02-17T10:11:26.768Z,951
2016-02-17T10:12:26.693Z,950.99
2016-02-17T10:13:26.649Z,951.02
2016-02-17T10:14:26.620Z,951.01
2016-02-17T10:15:26.515Z,950.96
2016-02-17T10:16:26.470Z,950.98
2016-02-17T10:17:26.426Z,950.99
2016-02-17T10:18:26.350Z,951.02
2016-02-17T10:19:26.290Z,950.96
2016-02-17T10:20:26.247Z,950.95
2016-02-17T10:21:26.186Z,950.97
2016-02-17T10:22:26.127Z,950.92
2016-02-17T10:23:26.067Z,950.91
2016-02-17T10:24:26.069Z,950.94
2016-02-17T10:25:25.947Z,950.91
2016-02-17T10:26:25.888Z,950.92
2016-02-17T10:27:25.844Z,950.96
2016-02-17T10:28:26.127Z,950.95
2016-02-17T10:29:25.724Z,950.94
2016-02-17T10:30:25.680Z,950.91
2016-02-17T10:31:25.620Z,950.89
2016-02-17T10:32:25.560Z,950.87
2016-02-17T10:33:25.547Z,950.87
2016-02-17T10:34:25.425Z,950.85
2016-02-17T10:35:25.380Z,950.84
2016-02-17T10:36:25.302Z,950.8
2016-02-17T10:37:25.243Z,950.79
2016-02-17T10:38:25.214Z,950.79
2016-02-17T10:39:25.155Z,950.75
2016-02-17T10:40:25.095Z,950.75
2016-02-17T10:41:25.066Z,950.7
2016-02-17T10:42:24.975Z,950.71
2016-02-17T10:43:24.977Z,950.69
2016-02-17T10:44:24.859Z,950.68
2016-02-17T10:45:24.803Z,950.66
2016-02-17T10:46:24.754Z,950.63
2016-02-17T10:47:24.735Z,950.62
2016-02-17T10:48:24.644Z,950.57
2016-02-17T10:49:24.569Z,950.58
2016-02-17T10:50:24.508Z,950.57
2016-02-17T10:51:24.465Z,950.58
2016-02-17T10:52:24.420Z,950.54
2016-02-17T10:53:24.345Z,950.58
2016-02-17T10:54:24.286Z,950.52
2016-02-17T10:55:24.242Z,950.52
2016-02-17T10:56:24.228Z,950.5
2016-02-17T10:57:24.116Z,950.49
2016-02-17T10:58:24.057Z,950.47
2016-02-17T10:59:24.027Z,950.49
2016-02-17T11:00:23.952Z,950.45
2016-02-17T11:01:23.893Z,950.42
2016-02-17T11:02:23.832Z,950.41
2016-02-17T11:03:23.757Z,950.41
2016-02-17T11:04:23.698Z,950.41
2016-02-17T11:05:23.638Z,950.39
2016-02-17T11:06:23.593Z,950.4
2016-02-17T11:07:23.534Z,950.33
2016-02-17T11:08:23.490Z,950.32
2016-02-17T11:09:23.742Z,950.33
2016-02-17T11:10:23.371Z,950.33
2016-02-17T11:11:23.373Z,950.32
2016-02-17T11:12:23.251Z,950.32
2016-02-17T11:13:23.190Z,950.25
2016-02-17T11:14:23.146Z,950.28
2016-02-17T11:15:23.071Z,950.28
2016-02-17T11:16:23.074Z,950.24
2016-02-17T11:17:22.968Z,950.24
2016-02-17T11:18:22.907Z,950.24
2016-02-17T11:19:22.848Z,950.25
2016-02-17T11:20:22.787Z,950.24
2016-02-17T11:21:22.806Z,950.23
2016-02-17T11:22:22.684Z,950.21
2016-02-17T11:23:22.625Z,950.21
2016-02-17T11:24:22.580Z,950.2
2016-02-17T11:25:22.551Z,950.2
2016-02-17T11:26:22.461Z,950.23
2016-02-17T11:27:22.478Z,950.19
2016-02-17T11:28:22.341Z,950.15
2016-02-17T11:29:22.281Z,950.14
2016-02-17T11:30:22.222Z,950.1
2016-02-17T11:31:22.177Z,950.11
2016-02-17T11:32:22.102Z,950.07
2016-02-17T11:33:22.058Z,950.01
2016-02-17T11:34:21.998Z,950.05
2016-02-17T11:35:21.938Z,950.04
2016-02-17T11:36:21.878Z,949.97
2016-02-17T11:37:21.849Z,949.97
2016-02-17T11:38:21.758Z,949.99
2016-02-17T11:39:21.698Z,949.98
2016-02-17T11:40:21.670Z,949.97
2016-02-17T11:41:21.610Z,949.94
2016-02-17T11:42:21.551Z,949.93
2016-02-17T11:43:21.491Z,949.93
2016-02-17T11:44:21.446Z,949.95
2016-02-17T11:45:21.387Z,949.9
2016-02-17T11:46:21.343Z,949.89
2016-02-17T11:47:21.299Z,949.88
2016-02-17T11:48:21.208Z,949.87
2016-02-17T11:49:21.195Z,949.84
2016-02-17T11:50:21.150Z,949.81
2016-02-17T11:51:21.044Z,949.77
2016-02-17T11:52:20.999Z,949.78
2016-02-17T11:53:20.909Z,949.79
2016-02-17T11:54:20.912Z,949.77
2016-02-17T11:55:20.804Z,949.76
2016-02-17T11:56:20.760Z,949.74
2016-02-17T11:57:20.717Z,949.72
2016-02-17T11:58:20.640Z,949.73
2016-02-17T11:59:20.566Z,949.71
2016-02-17T12:00:20.521Z,949.72
2016-02-17T12:01:20.477Z,949.7
2016-02-17T12:02:20.402Z,949.72
2016-02-17T12:03:20.373Z,949.66
2016-02-17T12:04:20.298Z,949.69
2016-02-17T12:05:20.227Z,949.7
2016-02-17T12:06:20.167Z,949.65
2016-02-17T12:07:20.107Z,949.65
2016-02-17T12:08:20.079Z,949.61
2016-02-17T12:09:20.035Z,949.58
2016-02-17T12:10:19.960Z,949.57
2016-02-17T12:11:20.212Z,949.57
2016-02-17T12:12:19.840Z,949.54
2016-02-17T12:13:19.780Z,949.53
2016-02-17T12:14:19.767Z,949.57
2016-02-17T12:15:19.676Z,949.53
2016-02-17T12:16:19.616Z,949.52
2016-02-17T12:17:19.540Z,949.49
2016-02-17T12:18:19.497Z,949.47
2016-02-17T12:19:19.437Z,949.42
2016-02-17T12:20:19.454Z,949.43
2016-02-17T12:21:19.318Z,949.41
2016-02-17T12:22:19.335Z,949.4
2016-02-17T12:23:19.198Z,949.4
2016-02-17T12:24:19.153Z,949.38
2016-02-17T12:25:19.109Z,949.35
2016-02-17T12:26:19.065Z,949.36
2016-02-17T12:27:19.006Z,949.39
2016-02-17T12:28:18.945Z,949.33
2016-02-17T12:29:18.963Z,949.34